createdAt,value
2019-01-18T00:02:01.169Z,1999.90
2019-01-18T00:04:30.706Z,1999.90
2019-01-18T00:06:59.500Z,1999.90
2019-01-18T00:09:28.301Z,1999.90
2019-01-18T00:11:57.039Z,1999.90
2019-01-18T00:14:25.744Z,1999.90
2019-01-18T00:16:54.874Z,1999.90
2019-01-18T00:19:23.642Z,1999.90
2019-01-18T00:21:52.436Z,1999.90
2019-01-18T00:24:21.225Z,1999.90
2019-01-18T00:26:50.051Z,1999.90
2019-01-18T00:29:18.845Z,1999.90
2019-01-18T00:31:47.543Z,1999.90
2019-01-18T00:34:16.873Z,1999.90
2019-01-18T00:36:45.580Z,1999.90
2019-01-18T00:39:14.352Z,1999.90
2019-01-18T00:41:43.216Z,1999.90
2019-01-18T00:44:12.001Z,1999.90
2019-01-18T00:46:40.796Z,1999.90
2019-01-18T00:49:09.530Z,1999.90
2019-01-18T00:51:38.310Z,1999.90
2019-01-18T00:54:07.121Z,1999.90
2019-01-18T00:56:36.172Z,1999.90
2019-01-18T00:59:05.085Z,1999.90
2019-01-18T01:01:33.797Z,1999.90
2019-01-18T01:04:02.694Z,1999.90
2019-01-18T01:06:31.501Z,1999.90
2019-01-18T01:09:00.215Z,1999.90
2019-01-18T01:11:29.048Z,1999.90
2019-01-18T01:13:57.853Z,1999.90
2019-01-18T01:16:26.880Z,1999.90
2019-01-18T01:18:55.603Z,1999.90
2019-01-18T01:21:24.389Z,1999.90
2019-01-18T01:23:53.446Z,1999.90
2019-01-18T01:26:22.237Z,1999.90
2019-01-18T01:28:52.833Z,1999.90
2019-01-18T01:31:21.530Z,1999.90
2019-01-18T01:33:50.312Z,1999.90
2019-01-18T01:36:19.085Z,1999.90
2019-01-18T01:38:47.814Z,1999.90
2019-01-18T01:41:16.597Z,1999.90
2019-01-18T01:43:45.696Z,1999.90
2019-01-18T01:46:14.480Z,1999.90
2019-01-18T01:48:43.603Z,1999.90
2019-01-18T01:51:12.726Z,1999.90
2019-01-18T01:53:41.421Z,1999.90
2019-01-18T01:56:10.206Z,1999.90
2019-01-18T01:58:39.024Z,1999.90
2019-01-18T02:01:07.801Z,1999.90
2019-01-18T02:03:36.686Z,1999.90
2019-01-18T02:06:05.477Z,1999.90
2019-01-18T02:08:34.188Z,1999.90
2019-01-18T02:11:02.984Z,1999.90
2019-01-18T02:13:31.967Z,1999.90
2019-01-18T02:16:00.836Z,1999.90
2019-01-18T02:18:29.929Z,1999.90
2019-01-18T02:20:58.706Z,1999.90
2019-01-18T02:23:27.421Z,1999.90
2019-01-18T02:25:56.133Z,1999.90
2019-01-18T02:28:25.033Z,1999.90
2019-01-18T02:30:53.805Z,1999.90
2019-01-18T02:33:22.594Z,1999.90
2019-01-18T02:35:51.395Z,1999.90
2019-01-18T02:38:20.105Z,1999.90
2019-01-18T02:40:48.941Z,1999.90
2019-01-18T02:43:18.047Z,1999.90
2019-01-18T02:45:46.831Z,1999.90
2019-01-18T02:48:15.534Z,1999.90
2019-01-18T02:50:44.276Z,1999.90
2019-01-18T02:53:13.006Z,1999.90
2019-01-18T02:55:41.723Z,1999.90
2019-01-18T02:58:10.428Z,1999.90
2019-01-18T03:00:39.143Z,1999.90
2019-01-18T03:03:08.145Z,1999.90
2019-01-18T03:05:36.989Z,1999.90
2019-01-18T03:08:05.788Z,1999.90
2019-01-18T03:10:34.561Z,1999.90
2019-01-18T03:13:03.270Z,1999.90
2019-01-18T03:15:31.983Z,1999.90
2019-01-18T03:18:00.714Z,1999.90
2019-01-18T03:20:29.502Z,1801.00
2019-01-18T03:22:58.549Z,1811.17
2019-01-18T03:25:30.494Z,1714.90
2019-01-18T03:27:59.352Z,1720.30
2019-01-18T03:30:28.517Z,1713.03
2019-01-18T03:32:57.313Z,1724.27
2019-01-18T03:35:26.169Z,1943.57
2019-01-18T03:37:54.936Z,1687.17
2019-01-18T03:40:23.638Z,1236.07
2019-01-18T03:42:53.491Z,1084.00
2019-01-18T03:45:22.276Z,1133.33
2019-01-18T03:47:51.093Z,1159.97
2019-01-18T03:50:22.268Z,1266.27
2019-01-18T03:52:51.046Z,1266.53
2019-01-18T03:55:20.041Z,1094.23
2019-01-18T03:57:49.009Z,1172.17
2019-01-18T04:00:25.893Z,1195.13
2019-01-18T04:02:50.612Z,1067.87
2019-01-18T04:05:19.322Z,1077.80
2019-01-18T04:07:48.125Z,1165.27
2019-01-18T04:10:18.122Z,1137.07
2019-01-18T04:12:46.972Z,1154.40
2019-01-18T04:15:17.507Z,1271.87
2019-01-18T04:17:46.293Z,1178.07
2019-01-18T04:20:16.410Z,1234.97
2019-01-18T04:22:45.639Z,1261.47
2019-01-18T04:25:17.742Z,1162.17
2019-01-18T04:27:46.549Z,987.40
2019-01-18T04:30:17.515Z,988.23
2019-01-18T04:32:46.308Z,1245.67
2019-01-18T04:35:15.244Z,1118.40
2019-01-18T04:37:44.100Z,1126.47
2019-01-18T04:40:15.525Z,1340.33
2019-01-18T04:42:44.383Z,1228.23
2019-01-18T04:45:13.209Z,1458.70
2019-01-18T04:47:42.070Z,1310.87
2019-01-18T04:50:13.870Z,1138.37
2019-01-18T04:52:42.863Z,1089.10
2019-01-18T04:55:11.724Z,1323.63
2019-01-18T04:57:40.857Z,1242.43
2019-01-18T05:00:16.575Z,1663.43
2019-01-18T05:02:45.640Z,1999.90
2019-01-18T05:05:14.789Z,1999.90
2019-01-18T05:07:43.586Z,1999.90
2019-01-18T05:10:13.605Z,1999.90
2019-01-18T05:12:42.406Z,1999.90
2019-01-18T05:15:13.849Z,1999.90
2019-01-18T05:17:42.714Z,1999.90
2019-01-18T05:20:11.726Z,1999.90
2019-01-18T05:22:40.501Z,1999.90
2019-01-18T05:25:10.313Z,1999.90
2019-01-18T05:27:39.009Z,1999.90
2019-01-18T05:30:14.415Z,0.77
2019-01-18T05:32:43.202Z,0.00
2019-01-18T05:35:12.591Z,0.00
2019-01-18T05:37:41.424Z,0.00
2019-01-18T05:40:12.323Z,0.00
2019-01-18T05:42:41.160Z,0.00
2019-01-18T05:45:11.422Z,0.00
2019-01-18T05:47:40.191Z,0.00
2019-01-18T05:50:15.150Z,0.00
2019-01-18T05:52:44.006Z,0.00
2019-01-18T05:55:13.151Z,0.00
2019-01-18T05:57:42.367Z,0.00
2019-01-18T06:00:23.966Z,0.00
2019-01-18T06:02:52.653Z,0.00
2019-01-18T06:05:22.033Z,0.00
2019-01-18T06:07:50.800Z,0.00
2019-01-18T06:10:19.571Z,0.00
2019-01-18T06:12:49.255Z,0.00
2019-01-18T06:15:18.011Z,0.00
2019-01-18T06:17:46.800Z,0.00
2019-01-18T06:20:15.855Z,0.00
2019-01-18T06:22:44.972Z,0.00
2019-01-18T06:25:13.758Z,0.00
2019-01-18T06:27:42.528Z,0.00
2019-01-18T06:30:14.677Z,0.00
2019-01-18T06:32:43.369Z,0.00
2019-01-18T06:35:12.199Z,0.00
2019-01-18T06:37:42.167Z,0.00
2019-01-18T06:40:32.933Z,0.00
2019-01-18T06:43:01.743Z,0.00
2019-01-18T06:45:31.207Z,0.00
2019-01-18T06:47:59.896Z,0.00
2019-01-18T06:50:28.669Z,0.00
2019-01-18T06:52:57.715Z,0.00
2019-01-18T06:55:26.603Z,0.00
2019-01-18T06:57:55.777Z,0.00
2019-01-18T07:00:31.686Z,0.00
2019-01-18T07:03:00.552Z,0.00
2019-01-18T07:05:30.059Z,0.00
2019-01-18T07:07:59.483Z,0.00
2019-01-18T07:10:29.182Z,0.00
2019-01-18T07:13:00.448Z,0.00
2019-01-18T07:15:48.348Z,0.00
2019-01-18T07:18:17.214Z,0.00
2019-01-18T07:20:46.843Z,0.00
2019-01-18T07:23:15.832Z,0.00
2019-01-18T07:25:44.547Z,0.00
2019-01-18T07:28:32.589Z,0.00
2019-01-18T07:31:01.479Z,0.00
2019-01-18T07:33:30.674Z,0.00
2019-01-18T07:35:59.862Z,0.00
2019-01-18T07:38:28.640Z,0.00
2019-01-18T07:40:57.452Z,0.00
2019-01-18T07:43:26.303Z,0.00
2019-01-18T07:45:55.277Z,0.00
2019-01-18T07:48:24.102Z,0.00
2019-01-18T07:50:52.888Z,0.00
2019-01-18T07:53:21.780Z,0.03
2019-01-18T07:55:50.912Z,0.00
2019-01-18T07:58:21.128Z,0.00
2019-01-18T08:00:50.638Z,0.00
2019-01-18T08:03:19.600Z,0.00
2019-01-18T08:05:49.472Z,0.00
2019-01-18T08:08:18.953Z,0.00
2019-01-18T08:10:49.462Z,0.00
2019-01-18T08:13:20.215Z,0.00
2019-01-18T08:15:50.322Z,0.00
2019-01-18T08:18:21.588Z,0.00
2019-01-18T08:20:50.480Z,0.77
2019-01-18T08:23:20.398Z,0.10
2019-01-18T08:25:50.507Z,0.00
2019-01-18T08:28:20.507Z,0.00
2019-01-18T08:30:50.724Z,0.00
2019-01-18T08:33:20.720Z,0.00
2019-01-18T08:35:51.010Z,0.10
2019-01-18T08:38:20.720Z,0.47
2019-01-18T08:40:51.287Z,1.00
2019-01-18T08:43:21.556Z,24.87
2019-01-18T08:45:59.023Z,1999.90
2019-01-18T08:48:27.825Z,1999.90
2019-01-18T08:50:56.707Z,1999.90
2019-01-18T08:53:26.124Z,1999.90
2019-01-18T08:55:54.850Z,1999.90
2019-01-18T08:58:23.904Z,1999.90
2019-01-18T09:00:53.457Z,1999.90
2019-01-18T09:03:22.290Z,1999.90
2019-01-18T09:05:52.120Z,1999.90
2019-01-18T09:08:21.824Z,1999.90
2019-01-18T09:10:52.554Z,1999.90
2019-01-18T09:13:22.014Z,1999.90
2019-01-18T09:15:51.861Z,1999.90
2019-01-18T09:18:21.601Z,1999.90
2019-01-18T09:20:51.444Z,1999.90
2019-01-18T09:23:21.515Z,1999.90
2019-01-18T09:25:51.810Z,1999.90
2019-01-18T09:28:21.640Z,1999.90
2019-01-18T09:30:50.451Z,1999.90
2019-01-18T09:33:19.641Z,1999.90
2019-01-18T09:35:48.435Z,1999.90
2019-01-18T09:38:18.085Z,1999.90
2019-01-18T09:40:46.997Z,1999.90
2019-01-18T09:43:15.880Z,1999.90
2019-01-18T09:45:44.823Z,1999.90
2019-01-18T09:48:13.719Z,1999.90
2019-01-18T09:50:42.626Z,1999.90
2019-01-18T09:53:12.098Z,1999.90
2019-01-18T09:55:40.861Z,1999.90
2019-01-18T09:58:10.064Z,1999.90
2019-01-18T10:00:39.574Z,1999.90
2019-01-18T10:03:08.405Z,1999.90
2019-01-18T10:05:37.656Z,1999.90
2019-01-18T10:08:09.803Z,1999.90
2019-01-18T10:10:38.858Z,1999.90
2019-01-18T10:13:07.662Z,1999.90
2019-01-18T10:15:42.064Z,1999.90
2019-01-18T10:18:11.100Z,1999.90
2019-01-18T10:20:39.967Z,1999.90
2019-01-18T10:23:08.759Z,1999.90
2019-01-18T10:25:37.644Z,1999.90
2019-01-18T10:28:06.465Z,1999.90
2019-01-18T10:30:35.720Z,1999.90
2019-01-18T10:33:04.892Z,1999.90
2019-01-18T10:35:33.604Z,1999.90
2019-01-18T10:38:03.581Z,1999.90
2019-01-18T10:40:34.218Z,1999.90
2019-01-18T10:43:03.872Z,1999.90
2019-01-18T10:45:33.673Z,1999.90
2019-01-18T10:48:03.549Z,1999.90
2019-01-18T10:50:35.608Z,1999.90
2019-01-18T10:53:05.090Z,1999.90
2019-01-18T10:55:34.620Z,1999.90
2019-01-18T10:58:04.359Z,1999.90
2019-01-18T11:00:35.847Z,1999.90
2019-01-18T11:03:05.174Z,1999.90
2019-01-18T11:05:34.762Z,1999.90
2019-01-18T11:08:04.324Z,1999.90
2019-01-18T11:10:35.644Z,1999.90
2019-01-18T11:13:06.384Z,1999.90
2019-01-18T11:15:36.238Z,1999.90
2019-01-18T11:18:06.258Z,1999.90
2019-01-18T11:21:08.603Z,1999.90
2019-01-18T11:23:37.326Z,1999.90
2019-01-18T11:26:06.150Z,1999.90
2019-01-18T11:28:34.853Z,1999.90
2019-01-18T11:31:03.714Z,1999.90
2019-01-18T11:33:34.186Z,1999.90
2019-01-18T11:36:03.417Z,1999.90
2019-01-18T11:38:35.218Z,1999.90
2019-01-18T11:41:04.951Z,1999.90
2019-01-18T11:43:34.691Z,1999.90
2019-01-18T11:46:03.563Z,1999.90
2019-01-18T11:48:32.925Z,1999.90
2019-01-18T11:51:02.717Z,1999.90
2019-01-18T11:53:32.801Z,1999.90
2019-01-18T11:56:01.656Z,1999.90
2019-01-18T11:58:31.341Z,1999.90
2019-01-18T12:01:00.314Z,1970.43
2019-01-18T12:03:29.817Z,1936.87
2019-01-18T12:05:58.607Z,1930.57
2019-01-18T12:08:27.446Z,1908.10
2019-01-18T12:10:56.149Z,1970.27
2019-01-18T12:13:25.190Z,1869.07
2019-01-18T12:15:54.102Z,1876.70
2019-01-18T12:18:22.795Z,1855.40
2019-01-18T12:20:51.606Z,1858.03
2019-01-18T12:23:22.290Z,1837.83
2019-01-18T12:25:52.913Z,1803.83
2019-01-18T12:28:22.613Z,1745.10
2019-01-18T12:30:51.517Z,1776.07
2019-01-18T12:33:21.043Z,1760.90
2019-01-18T12:35:50.833Z,1691.37
2019-01-18T12:38:20.623Z,1679.67
2019-01-18T12:40:50.747Z,1699.60
2019-01-18T12:43:20.586Z,1583.97
2019-01-18T12:45:50.600Z,1595.07
2019-01-18T12:48:20.531Z,1566.57
2019-01-18T12:50:50.479Z,1473.23
2019-01-18T12:53:21.092Z,1425.43
2019-01-18T12:55:51.012Z,1338.13
2019-01-18T12:58:20.226Z,1233.23
2019-01-18T13:00:50.826Z,1219.03
2019-01-18T13:03:22.460Z,1180.13
2019-01-18T13:05:53.134Z,1195.43
2019-01-18T13:08:22.333Z,1156.53
2019-01-18T13:10:52.946Z,1054.70
2019-01-18T13:13:22.129Z,1048.13
2019-01-18T13:16:15.884Z,984.53
2019-01-18T13:18:47.617Z,873.30
2019-01-18T13:21:21.495Z,850.57
2019-01-18T13:23:50.367Z,790.33
2019-01-18T13:26:19.449Z,797.17
2019-01-18T13:28:50.281Z,793.23
2019-01-18T13:31:19.388Z,738.67
2019-01-18T13:33:49.336Z,713.53
2019-01-18T13:36:18.715Z,701.53
2019-01-18T13:38:49.518Z,682.93
2019-01-18T13:41:19.348Z,643.40
2019-01-18T13:43:48.207Z,660.87
2019-01-18T13:46:17.247Z,680.33
2019-01-18T13:48:46.108Z,721.80
2019-01-18T13:51:14.897Z,714.37
2019-01-18T13:53:43.715Z,700.73
2019-01-18T13:56:12.428Z,735.43
2019-01-18T13:58:42.091Z,677.97
2019-01-18T14:01:11.258Z,681.00
2019-01-18T14:03:40.023Z,635.40
2019-01-18T14:06:08.832Z,649.90
2019-01-18T14:08:38.020Z,578.43
2019-01-18T14:11:13.342Z,614.33
2019-01-18T14:13:42.112Z,563.50
2019-01-18T14:16:10.818Z,543.90
2019-01-18T14:18:40.999Z,537.90
2019-01-18T14:21:09.772Z,521.13
2019-01-18T14:23:38.959Z,431.13
2019-01-18T14:26:08.146Z,401.13
2019-01-18T14:28:37.486Z,424.57
2019-01-18T14:31:09.105Z,373.03
2019-01-18T14:33:38.211Z,395.07
2019-01-18T14:36:08.305Z,336.07
2019-01-18T14:38:38.110Z,287.17
2019-01-18T14:41:07.928Z,219.33
2019-01-18T14:43:37.753Z,242.90
2019-01-18T14:46:07.708Z,226.73
2019-01-18T14:48:38.492Z,184.30
2019-01-18T14:51:10.826Z,151.73
2019-01-18T14:53:40.884Z,138.50
2019-01-18T14:56:09.717Z,145.97
2019-01-18T14:58:39.210Z,156.87
2019-01-18T15:01:09.179Z,138.43
2019-01-18T15:03:39.268Z,110.70
2019-01-18T15:06:08.931Z,114.83
2019-01-18T15:08:38.649Z,119.50
2019-01-18T15:11:08.783Z,103.83
2019-01-18T15:13:38.080Z,100.77
2019-01-18T15:16:08.594Z,94.47
2019-01-18T15:18:40.702Z,92.97
2019-01-18T15:21:12.954Z,93.53
2019-01-18T15:23:42.379Z,89.80
2019-01-18T15:26:18.275Z,70.17
2019-01-18T15:28:46.136Z,193.87
2019-01-18T15:31:14.896Z,169.60
2019-01-18T15:33:43.615Z,71.93
2019-01-18T15:36:12.651Z,57.87
2019-01-18T15:38:43.574Z,49.57
2019-01-18T15:41:13.127Z,39.93
2019-01-18T15:43:42.873Z,37.60
2019-01-18T15:46:12.379Z,28.93
2019-01-18T15:48:42.309Z,22.53
2019-01-18T15:51:11.975Z,20.87
2019-01-18T15:53:42.134Z,18.10
2019-01-18T15:56:12.478Z,19.77
2019-01-18T15:58:42.979Z,17.63
2019-01-18T16:01:13.472Z,19.07
2019-01-18T16:03:43.644Z,19.83
2019-01-18T16:06:12.919Z,18.80
2019-01-18T16:08:42.384Z,20.17
2019-01-18T16:11:11.102Z,21.60
2019-01-18T16:13:41.598Z,24.27
2019-01-18T16:16:34.089Z,19.27
2019-01-18T16:19:02.915Z,19.57
2019-01-18T16:21:31.646Z,18.07
2019-01-18T16:24:00.542Z,14.90
2019-01-18T16:26:29.399Z,18.20
2019-01-18T16:29:00.467Z,15.67
2019-01-18T16:31:29.835Z,15.07
2019-01-18T16:34:00.788Z,15.60
2019-01-18T16:36:31.737Z,12.37
2019-01-18T16:39:00.628Z,12.37
2019-01-18T16:41:32.725Z,8.97
2019-01-18T16:44:01.605Z,13.43
2019-01-18T16:46:30.315Z,11.03
2019-01-18T16:48:59.214Z,11.17
2019-01-18T16:51:29.404Z,9.70
2019-01-18T16:53:59.951Z,12.40
2019-01-18T16:56:29.082Z,12.67
2019-01-18T16:59:00.141Z,10.80
2019-01-18T17:01:28.940Z,10.70
2019-01-18T17:03:57.767Z,11.00
2019-01-18T17:06:26.483Z,7.90
2019-01-18T17:08:55.255Z,8.57
2019-01-18T17:11:24.343Z,13.63
2019-01-18T17:13:53.115Z,8.40
2019-01-18T17:16:22.453Z,10.10
2019-01-18T17:18:51.217Z,11.33
2019-01-18T17:21:21.027Z,10.50
2019-01-18T17:23:49.743Z,9.43
2019-01-18T17:26:18.540Z,8.40
2019-01-18T17:28:47.330Z,9.57
2019-01-18T17:31:17.268Z,5.17
2019-01-18T17:33:46.181Z,6.20
2019-01-18T17:36:26.032Z,7.90
2019-01-18T17:39:20.500Z,7.30
2019-01-18T17:42:44.202Z,9.27
2019-01-18T17:45:42.638Z,5.43
2019-01-18T17:48:27.751Z,5.13
2019-01-18T17:51:59.473Z,5.47
2019-01-18T17:55:06.025Z,5.43
2019-01-18T17:58:17.705Z,4.33
2019-01-18T18:01:39.987Z,3.83
2019-01-18T18:04:48.279Z,5.07
2019-01-18T18:07:55.789Z,4.60
2019-01-18T18:11:15.980Z,4.13
2019-01-18T18:14:45.217Z,4.50
2019-01-18T18:18:00.035Z,4.17
2019-01-18T18:21:10.309Z,3.53
2019-01-18T18:24:16.806Z,3.27
2019-01-18T18:27:34.017Z,4.03
2019-01-18T18:30:28.634Z,3.93
2019-01-18T18:33:30.053Z,3.13
2019-01-18T18:36:25.887Z,3.67
2019-01-18T18:39:39.138Z,2.60
2019-01-18T18:42:19.524Z,2.83
2019-01-18T18:45:04.122Z,2.43
2019-01-18T18:48:21.157Z,3.20
2019-01-18T18:51:33.277Z,1.97
2019-01-18T18:54:55.591Z,28.70
2019-01-18T18:58:21.514Z,21.53
2019-01-18T19:01:31.243Z,18.50
2019-01-18T19:04:23.435Z,18.03
2019-01-18T19:07:32.216Z,6.83
2019-01-18T19:10:25.749Z,6.13
2019-01-18T19:13:11.702Z,6.03
2019-01-18T19:16:33.232Z,5.03
2019-01-18T19:19:35.310Z,2.83
2019-01-18T19:22:27.993Z,2.67
2019-01-18T19:25:37.105Z,1.40
2019-01-18T19:28:20.810Z,1.67
2019-01-18T19:31:41.037Z,1.43
2019-01-18T19:34:19.528Z,1.33
2019-01-18T19:37:34.697Z,1.30
2019-01-18T19:40:17.971Z,2.73
2019-01-18T19:43:32.502Z,2.23
2019-01-18T19:47:02.185Z,0.97
2019-01-18T19:50:06.702Z,0.70
2019-01-18T19:53:12.656Z,1.13
2019-01-18T19:56:19.119Z,1.23
2019-01-18T19:59:48.477Z,0.80
2019-01-18T20:03:18.648Z,0.93
2019-01-18T20:06:24.787Z,0.80
2019-01-18T20:09:50.051Z,0.77
2019-01-18T20:13:07.268Z,0.57
2019-01-18T20:16:16.035Z,0.63
2019-01-18T20:19:03.542Z,0.50
2019-01-18T20:22:21.310Z,0.63
2019-01-18T20:25:37.466Z,0.50
2019-01-18T20:28:40.985Z,0.43
2019-01-18T20:31:33.921Z,0.50
2019-01-18T20:34:24.915Z,0.50
2019-01-18T20:37:24.353Z,0.50
2019-01-18T20:40:21.624Z,0.60
2019-01-18T20:43:09.142Z,0.50
2019-01-18T20:45:55.564Z,0.50
2019-01-18T20:49:12.098Z,0.50
2019-01-18T20:52:22.223Z,0.47
2019-01-18T20:55:43.704Z,0.30
2019-01-18T20:58:35.144Z,0.50
2019-01-18T21:01:38.917Z,0.30
2019-01-18T21:04:33.773Z,0.33
2019-01-18T21:07:19.195Z,0.40
2019-01-18T21:10:18.815Z,0.30
2019-01-18T21:13:08.287Z,0.40
2019-01-18T21:15:52.130Z,0.53
2019-01-18T21:19:02.496Z,0.30
2019-01-18T21:22:12.139Z,0.50
2019-01-18T21:25:30.978Z,0.50
2019-01-18T21:28:28.050Z,0.43
2019-01-18T21:31:26.528Z,0.50
2019-01-18T21:34:15.880Z,0.40
2019-01-18T21:37:38.987Z,0.30
2019-01-18T21:40:40.812Z,0.30
2019-01-18T21:43:52.662Z,0.40
2019-01-18T21:47:05.754Z,0.40
2019-01-18T21:50:10.110Z,0.50
2019-01-18T21:53:15.304Z,0.47
2019-01-18T21:56:18.771Z,0.40
2019-01-18T21:59:11.726Z,0.30
2019-01-18T22:01:51.439Z,0.30
2019-01-18T22:04:40.656Z,0.40
2019-01-18T22:07:44.812Z,0.30
2019-01-18T22:10:35.679Z,0.20
2019-01-18T22:13:23.339Z,0.30
2019-01-18T22:16:29.409Z,0.30
2019-01-18T22:19:52.587Z,0.30
2019-01-18T22:22:56.863Z,0.30
2019-01-18T22:26:04.621Z,0.33
2019-01-18T22:29:09.569Z,0.30
2019-01-18T22:32:04.871Z,0.30
2019-01-18T22:34:55.518Z,0.40
2019-01-18T22:38:11.580Z,0.30
2019-01-18T22:41:02.900Z,0.40
2019-01-18T22:43:42.247Z,0.20
2019-01-18T22:46:43.520Z,0.40
2019-01-18T22:49:58.000Z,0.30
2019-01-18T22:52:58.805Z,0.30
2019-01-18T22:55:42.341Z,0.30
2019-01-18T22:58:45.073Z,0.30
2019-01-18T23:01:43.889Z,0.20
2019-01-18T23:04:31.903Z,0.20
2019-01-18T23:07:30.243Z,0.33
2019-01-18T23:10:40.406Z,0.30
2019-01-18T23:13:30.047Z,0.20
2019-01-18T23:16:39.315Z,0.10
2019-01-18T23:19:57.382Z,0.20
2019-01-18T23:23:07.486Z,0.20
2019-01-18T23:25:48.376Z,0.20
2019-01-18T23:28:47.292Z,0.20
2019-01-18T23:31:23.659Z,0.10
2019-01-18T23:34:21.046Z,0.30
2019-01-18T23:37:19.765Z,0.17
2019-01-18T23:40:51.415Z,0.20
2019-01-18T23:44:07.491Z,0.20
2019-01-18T23:47:09.104Z,0.20
2019-01-18T23:50:12.291Z,0.20
2019-01-18T23:53:06.150Z,0.20
2019-01-18T23:56:01.948Z,0.20
2019-01-18T23:58:58.323Z,0.10
